Time;durP1;ratioP1;P1;durP2;ratioP2;P2;SDS_P1;SDS_P2;PMS_P1;PMS_P2;Temp;Humidity;BMP_temperature;BMP_pressure;BME280_temperature;BME280_humidity;BME280_pressure;Samples;Min_cycle;Max_cycle;Signal;HPM_P1;HPM_P2
2023/05/29 00:00:16;;;;;;;3.72;3.00;;;20.80;53.00;;;;;;5075651;28;20174;-66
2023/05/29 00:02:44;;;;;;;3.67;3.00;;;20.80;53.00;;;;;;5074426;28;20270;-65
2023/05/29 00:05:11;;;;;;;3.50;2.85;;;20.80;52.90;;;;;;5075764;28;20177;-65
2023/05/29 00:07:37;;;;;;;3.00;2.70;;;20.80;53.00;;;;;;5076016;28;20170;-64
2023/05/29 00:10:03;;;;;;;3.00;2.80;;;20.80;53.00;;;;;;5074146;28;20268;-63
2023/05/29 00:12:29;;;;;;;2.80;2.10;;;20.80;53.00;;;;;;5075151;28;20175;-64
2023/05/29 00:14:54;;;;;;;3.40;2.88;;;20.80;53.10;;;;;;5075006;28;20178;-64
2023/05/29 00:17:21;;;;;;;2.85;2.45;;;20.80;53.00;;;;;;5074886;28;20181;-64
2023/05/29 00:19:46;;;;;;;2.88;2.67;;;20.70;53.00;;;;;;5075722;28;20183;-64
2023/05/29 00:22:12;;;;;;;3.53;2.38;;;20.70;53.00;;;;;;5074628;28;20178;-63
2023/05/29 00:24:38;;;;;;;2.72;2.50;;;20.70;53.00;;;;;;5075512;28;20653;-64
2023/05/29 00:27:03;;;;;;;2.65;2.45;;;20.70;53.00;;;;;;5075425;28;20174;-64
2023/05/29 00:29:29;;;;;;;3.13;2.40;;;20.70;53.10;;;;;;5074655;28;20669;-64
2023/05/29 00:31:56;;;;;;;3.17;2.45;;;20.70;53.10;;;;;;5075018;28;20162;-65
2023/05/29 00:34:22;;;;;;;3.35;2.63;;;20.70;53.10;;;;;;5074316;28;20572;-65
2023/05/29 00:36:48;;;;;;;2.78;2.20;;;20.70;53.10;;;;;;5074170;28;20236;-65
2023/05/29 00:39:14;;;;;;;4.40;2.45;;;20.70;53.10;;;;;;5074897;28;20607;-65
2023/05/29 00:41:39;;;;;;;3.35;2.83;;;20.70;53.20;;;;;;5074945;28;20170;-64
2023/05/29 00:44:05;;;;;;;3.13;2.60;;;20.70;53.20;;;;;;5074415;28;20198;-64
2023/05/29 00:46:31;;;;;;;2.97;2.67;;;20.70;53.20;;;;;;5074531;28;20254;-64
2023/05/29 00:48:58;;;;;;;2.78;2.47;;;20.70;53.20;;;;;;5073950;28;20220;-64
2023/05/29 00:51:24;;;;;;;2.90;2.42;;;20.70;53.30;;;;;;5074108;28;20253;-63
2023/05/29 00:53:49;;;;;;;2.70;2.30;;;20.70;53.30;;;;;;5074349;28;20206;-63
2023/05/29 00:56:16;;;;;;;2.55;2.15;;;20.70;53.30;;;;;;5056196;28;20179;-64
2023/05/29 00:58:41;;;;;;;4.43;2.30;;;20.70;53.40;;;;;;5073528;28;20206;-64
2023/05/29 01:01:07;;;;;;;2.63;2.40;;;20.70;53.40;;;;;;5073445;28;20198;-66
2023/05/29 01:03:32;;;;;;;3.25;2.25;;;20.70;53.40;;;;;;5073568;28;20616;-65
2023/05/29 01:05:58;;;;;;;2.50;2.30;;;20.70;53.40;;;;;;5073998;28;20515;-65
2023/05/29 01:08:23;;;;;;;2.60;2.20;;;20.60;53.40;;;;;;5072168;28;20273;-64
2023/05/29 01:10:50;;;;;;;2.90;2.10;;;20.60;53.30;;;;;;5073856;28;20532;-63
2023/05/29 01:13:22;;;;;;;3.03;2.35;;;20.60;53.40;;;;;;5055722;28;20236;-64
2023/05/29 01:15:58;;;;;;;2.85;2.42;;;20.60;53.40;;;;;;5074774;28;20186;-64
2023/05/29 01:18:41;;;;;;;2.92;2.40;;;20.60;53.40;;;;;;5073539;28;20202;-64
2023/05/29 01:21:35;;;;;;;2.33;2.05;;;20.60;53.50;;;;;;5072502;28;20175;-64
2023/05/29 01:24:19;;;;;;;2.30;2.05;;;20.60;53.40;;;;;;5057079;28;20695;-64
2023/05/29 01:26:55;;;;;;;2.08;1.88;;;20.60;53.50;;;;;;5073564;28;20232;-64
2023/05/29 01:29:23;;;;;;;4.03;2.58;;;20.60;53.50;;;;;;5071969;28;20217;-64
2023/05/29 01:31:48;;;;;;;2.63;2.25;;;20.60;53.50;;;;;;5072839;28;20656;-65
2023/05/29 01:34:14;;;;;;;2.53;2.10;;;20.60;53.50;;;;;;5073135;28;20179;-66
2023/05/29 01:36:39;;;;;;;3.97;2.50;;;20.60;53.50;;;;;;5073865;28;20217;-65
2023/05/29 01:39:05;;;;;;;3.05;2.17;;;20.60;53.60;;;;;;5073601;28;20189;-65
2023/05/29 01:41:31;;;;;;;2.40;2.10;;;20.60;53.70;;;;;;5055497;28;20175;-64
2023/05/29 01:43:57;;;;;;;3.38;2.65;;;20.60;53.60;;;;;;5072929;28;20175;-64
2023/05/29 01:46:23;;;;;;;1.95;1.83;;;20.60;53.60;;;;;;5071189;28;20528;-64
2023/05/29 01:48:48;;;;;;;2.90;2.50;;;20.60;53.60;;;;;;5072714;28;20612;-64
2023/05/29 01:51:14;;;;;;;2.63;2.15;;;20.50;53.60;;;;;;5073720;28;20232;-64
2023/05/29 01:53:40;;;;;;;3.28;2.20;;;20.50;53.60;;;;;;5073283;28;20206;-63
2023/05/29 01:56:06;;;;;;;2.67;2.13;;;20.50;53.60;;;;;;5071008;28;20185;-64
2023/05/29 01:58:32;;;;;;;2.88;2.15;;;20.50;53.60;;;;;;5071115;28;20227;-66
2023/05/29 02:00:57;;;;;;;2.50;2.03;;;20.50;53.70;;;;;;5071262;28;20174;-65
2023/05/29 02:03:23;;;;;;;3.05;2.35;;;20.50;53.70;;;;;;5072957;28;20186;-65
2023/05/29 02:05:49;;;;;;;3.15;2.10;;;20.50;53.70;;;;;;5072351;28;20170;-65
2023/05/29 02:08:15;;;;;;;3.03;2.40;;;20.50;53.60;;;;;;5070744;28;20194;-65
2023/05/29 02:10:40;;;;;;;2.92;2.03;;;20.50;53.70;;;;;;5071898;28;20185;-64
2023/05/29 02:13:06;;;;;;;2.88;2.20;;;20.50;53.70;;;;;;5072923;28;20266;-64
2023/05/29 02:15:31;;;;;;;2.83;2.05;;;20.50;53.70;;;;;;5072235;28;20170;-64
2023/05/29 02:17:57;;;;;;;2.47;2.15;;;20.50;53.70;;;;;;5073156;28;20178;-64
2023/05/29 02:20:24;;;;;;;3.42;2.15;;;20.50;53.70;;;;;;5072955;28;20568;-64
2023/05/29 02:22:49;;;;;;;3.63;2.15;;;20.50;53.70;;;;;;5072326;28;20174;-64
2023/05/29 02:25:15;;;;;;;2.25;1.77;;;20.40;53.80;;;;;;5072857;28;20166;-64
2023/05/29 02:27:40;;;;;;;2.63;2.42;;;20.50;53.80;;;;;;5073003;28;20265;-65
2023/05/29 02:30:06;;;;;;;3.97;2.78;;;20.50;53.80;;;;;;5070381;28;20222;-65
2023/05/29 02:32:32;;;;;;;2.28;2.08;;;20.50;53.80;;;;;;5070592;28;20175;-64
2023/05/29 02:34:58;;;;;;;2.67;2.20;;;20.40;53.80;;;;;;5072306;28;20220;-65
2023/05/29 02:37:25;;;;;;;3.53;1.98;;;20.40;53.80;;;;;;5071830;28;20228;-65
2023/05/29 02:39:51;;;;;;;2.20;2.00;;;20.40;53.80;;;;;;5072369;28;20251;-64
2023/05/29 02:42:17;;;;;;;3.08;1.75;;;20.40;53.80;;;;;;5072457;28;20701;-64
2023/05/29 02:44:42;;;;;;;2.17;1.80;;;20.40;53.80;;;;;;5072020;28;20664;-64
2023/05/29 02:47:08;;;;;;;2.70;1.98;;;20.40;53.80;;;;;;5072503;28;20652;-65
2023/05/29 02:49:33;;;;;;;3.17;2.25;;;20.40;53.80;;;;;;5072632;28;20247;-64
2023/05/29 02:51:59;;;;;;;3.53;2.13;;;20.40;53.80;;;;;;5072729;28;20220;-63
2023/05/29 02:54:25;;;;;;;3.00;2.00;;;20.40;53.90;;;;;;5072778;28;20174;-64
2023/05/29 02:56:51;;;;;;;2.60;1.92;;;20.40;53.90;;;;;;5072004;28;20267;-64
2023/05/29 02:59:17;;;;;;;2.20;1.70;;;20.40;53.90;;;;;;5072208;28;20175;-65
2023/05/29 03:01:42;;;;;;;4.38;2.25;;;20.30;53.80;;;;;;5072765;28;20265;-65
2023/05/29 03:04:09;;;;;;;2.83;2.10;;;20.30;53.80;;;;;;5071985;28;20216;-65
2023/05/29 03:06:36;;;;;;;3.42;2.05;;;20.40;53.90;;;;;;5072601;28;20182;-65
2023/05/29 03:09:02;;;;;;;3.05;2.10;;;20.30;53.80;;;;;;5072023;28;20202;-64
2023/05/29 03:11:28;;;;;;;3.35;2.03;;;20.40;53.90;;;;;;5070945;28;20253;-64
2023/05/29 03:13:54;;;;;;;3.28;1.90;;;20.30;53.80;;;;;;5072363;28;20174;-63
2023/05/29 03:16:20;;;;;;;2.80;1.77;;;20.30;53.90;;;;;;5071755;28;20700;-64
2023/05/29 03:18:46;;;;;;;2.88;1.95;;;20.30;53.90;;;;;;5071114;28;20236;-64
2023/05/29 03:21:12;;;;;;;2.92;2.08;;;20.30;53.90;;;;;;5073735;28;20265;-64
2023/05/29 03:23:37;;;;;;;3.90;1.90;;;20.30;53.90;;;;;;5076516;28;20200;-64
2023/05/29 03:26:03;;;;;;;2.00;1.70;;;20.30;53.90;;;;;;5075974;28;20220;-64
2023/05/29 03:28:29;;;;;;;2.88;2.08;;;20.30;53.90;;;;;;5076101;28;20206;-64
2023/05/29 03:30:54;;;;;;;3.60;2.00;;;20.30;53.90;;;;;;5076416;28;20333;-65
2023/05/29 03:33:20;;;;;;;2.30;2.05;;;20.30;53.90;;;;;;5075534;28;20193;-65
2023/05/29 03:35:46;;;;;;;3.05;2.05;;;20.30;53.90;;;;;;5076127;28;20174;-65
2023/05/29 03:38:11;;;;;;;1.92;1.80;;;20.30;54.60;;;;;;5074955;28;20245;-64
2023/05/29 03:40:37;;;;;;;3.65;1.88;;;20.30;54.00;;;;;;5075519;28;20645;-64
2023/05/29 03:43:02;;;;;;;1.92;1.50;;;20.30;53.90;;;;;;5075748;28;20705;-64
2023/05/29 03:45:28;;;;;;;2.60;1.70;;;20.30;54.00;;;;;;5075130;28;20174;-64
2023/05/29 03:47:53;;;;;;;3.13;1.98;;;20.30;54.00;;;;;;5075502;28;20204;-64
2023/05/29 03:50:19;;;;;;;3.70;2.10;;;20.30;54.00;;;;;;5075825;28;20268;-63
2023/05/29 03:52:44;;;;;;;3.63;1.60;;;20.30;54.00;;;;;;5076161;28;20182;-64
2023/05/29 03:55:14;;;;;;;2.03;1.65;;;20.30;54.00;;;;;;5075104;28;20178;-64
2023/05/29 03:57:40;;;;;;;2.88;1.42;;;20.20;54.00;;;;;;5075914;28;20178;-64
2023/05/29 04:00:11;;;;;;;2.40;1.65;;;20.30;54.00;;;;;;5074933;28;20728;-66
2023/05/29 04:02:40;;;;;;;3.38;2.03;;;20.30;54.00;;;;;;5075306;28;20178;-65
2023/05/29 04:05:08;;;;;;;2.10;1.88;;;20.20;54.00;;;;;;5074696;28;20174;-64
2023/05/29 04:07:36;;;;;;;3.67;1.80;;;20.30;54.00;;;;;;5074499;28;20167;-65
2023/05/29 04:10:02;;;;;;;2.78;1.63;;;20.30;54.00;;;;;;5074665;28;20786;-63
2023/05/29 04:12:28;;;;;;;3.72;2.05;;;20.30;54.00;;;;;;5075335;28;20174;-64
2023/05/29 04:14:53;;;;;;;2.50;2.00;;;20.30;54.00;;;;;;5073758;28;20569;-64
2023/05/29 04:17:19;;;;;;;1.98;1.60;;;20.20;54.00;;;;;;5075306;28;20166;-64
2023/05/29 04:19:45;;;;;;;2.95;1.73;;;20.30;54.00;;;;;;5075556;28;20257;-64
2023/05/29 04:22:10;;;;;;;2.25;1.92;;;20.30;54.00;;;;;;5074452;28;20178;-64
2023/05/29 04:24:36;;;;;;;2.25;1.80;;;20.20;53.90;;;;;;5075228;28;20171;-64
2023/05/29 04:27:01;;;;;;;2.85;1.88;;;20.30;54.00;;;;;;5075444;28;20640;-64
2023/05/29 04:29:28;;;;;;;2.63;1.67;;;20.30;54.00;;;;;;5073972;28;20206;-64
2023/05/29 04:31:55;;;;;;;2.95;1.58;;;20.20;53.90;;;;;;5074402;28;20179;-65
2023/05/29 04:34:21;;;;;;;2.33;1.77;;;20.30;53.90;;;;;;5074991;28;20673;-65
2023/05/29 04:36:47;;;;;;;2.65;1.80;;;20.20;54.00;;;;;;5073516;28;20226;-65
2023/05/29 04:39:13;;;;;;;2.92;1.80;;;20.30;53.90;;;;;;5074315;28;20202;-64
2023/05/29 04:41:40;;;;;;;2.40;1.60;;;20.20;54.00;;;;;;5075073;28;20271;-64
2023/05/29 04:44:08;;;;;;;3.70;2.15;;;20.30;54.00;;;;;;5074002;28;20287;-64
2023/05/29 04:46:34;;;;;;;2.88;1.52;;;20.30;54.00;;;;;;5074963;28;20171;-64
2023/05/29 04:49:02;;;;;;;2.72;1.70;;;20.30;54.00;;;;;;5073871;28;20680;-64
2023/05/29 04:51:29;;;;;;;2.38;1.60;;;20.30;54.00;;;;;;5073984;28;20175;-64
2023/05/29 04:53:55;;;;;;;2.47;1.55;;;20.20;53.90;;;;;;5074827;28;20188;-64
2023/05/29 04:56:21;;;;;;;2.85;1.75;;;20.20;54.00;;;;;;5074046;28;20629;-64
2023/05/29 04:58:47;;;;;;;2.85;1.67;;;20.20;53.90;;;;;;5074843;28;20628;-65
2023/05/29 05:01:17;;;;;;;2.88;1.70;;;20.30;53.90;;;;;;5074380;28;20170;-66
2023/05/29 05:03:43;;;;;;;2.33;1.67;;;20.20;53.90;;;;;;5074021;28;20650;-65
2023/05/29 05:06:08;;;;;;;2.72;1.85;;;20.30;53.90;;;;;;5074601;28;20174;-66
2023/05/29 05:08:34;;;;;;;2.53;1.50;;;20.30;53.80;;;;;;5074472;28;20572;-64
2023/05/29 05:11:00;;;;;;;2.10;1.40;;;20.30;53.90;;;;;;5073680;28;20170;-64
2023/05/29 05:13:26;;;;;;;2.38;1.67;;;20.30;53.90;;;;;;5073926;28;20207;-64
2023/05/29 05:15:51;;;;;;;3.85;1.75;;;20.30;53.90;;;;;;5074531;28;20186;-64
2023/05/29 05:18:17;;;;;;;2.65;1.60;;;20.30;53.90;;;;;;5073419;28;20178;-64
2023/05/29 05:20:42;;;;;;;3.03;1.55;;;20.30;53.80;;;;;;5074000;28;20626;-65
2023/05/29 05:23:09;;;;;;;2.78;1.58;;;20.30;53.90;;;;;;5073738;28;20170;-64
2023/05/29 05:25:35;;;;;;;3.70;1.73;;;20.30;53.80;;;;;;5073721;28;20591;-65
2023/05/29 05:28:02;;;;;;;3.67;1.92;;;20.30;53.80;;;;;;5073457;28;20178;-65
2023/05/29 05:30:28;;;;;;;2.05;1.60;;;20.30;53.80;;;;;;5073910;28;20182;-66
2023/05/29 05:32:53;;;;;;;2.33;1.70;;;20.30;53.80;;;;;;5073525;28;20193;-66
2023/05/29 05:35:19;;;;;;;2.13;1.63;;;20.30;53.80;;;;;;5073774;28;20180;-66
2023/05/29 05:37:45;;;;;;;2.30;1.70;;;20.20;53.80;;;;;;5072437;28;20242;-66
2023/05/29 05:40:10;;;;;;;2.53;1.63;;;20.30;53.80;;;;;;5071011;28;20208;-65
2023/05/29 05:42:36;;;;;;;2.78;1.63;;;20.30;53.80;;;;;;5072695;28;20178;-65
2023/05/29 05:45:02;;;;;;;3.65;1.80;;;20.30;53.80;;;;;;5073679;28;20223;-65
2023/05/29 05:47:28;;;;;;;2.15;1.50;;;20.30;53.80;;;;;;5072979;28;20185;-65
2023/05/29 05:49:54;;;;;;;2.50;1.58;;;20.30;53.90;;;;;;5072800;28;20194;-64
2023/05/29 05:52:20;;;;;;;1.50;1.40;;;20.30;53.90;;;;;;5072393;28;20182;-64
2023/05/29 05:54:48;;;;;;;1.98;1.73;;;20.30;53.80;;;;;;5073140;28;20175;-64
2023/05/29 05:57:14;;;;;;;2.28;1.52;;;20.30;53.90;;;;;;5073606;28;20167;-64
2023/05/29 05:59:39;;;;;;;3.17;1.80;;;20.30;53.80;;;;;;5072011;28;20196;-66
2023/05/29 06:02:05;;;;;;;2.65;1.70;;;20.30;53.80;;;;;;5071366;28;20198;-66
2023/05/29 06:04:30;;;;;;;2.60;1.88;;;20.30;53.80;;;;;;5072493;28;20181;-66
2023/05/29 06:06:56;;;;;;;3.00;1.45;;;20.30;53.80;;;;;;5072301;28;20198;-64
2023/05/29 06:09:21;;;;;;;2.70;1.15;;;20.30;53.80;;;;;;5072568;28;20206;-64
2023/05/29 06:11:47;;;;;;;2.35;1.55;;;20.30;53.80;;;;;;5072665;28;20187;-64
2023/05/29 06:14:13;;;;;;;3.03;1.70;;;20.30;53.80;;;;;;5072299;28;20174;-65
2023/05/29 06:16:39;;;;;;;4.15;1.88;;;20.30;53.80;;;;;;5073076;28;20546;-65
2023/05/29 06:19:04;;;;;;;2.20;1.60;;;20.30;53.80;;;;;;5073016;28;20174;-65
2023/05/29 06:21:31;;;;;;;2.17;1.55;;;20.30;53.80;;;;;;5072299;28;20194;-64
2023/05/29 06:23:57;;;;;;;2.25;1.30;;;20.30;53.80;;;;;;5073280;28;20170;-64
2023/05/29 06:26:23;;;;;;;3.15;1.63;;;20.40;53.80;;;;;;5072618;28;20178;-65
2023/05/29 06:28:48;;;;;;;1.95;1.30;;;20.40;53.90;;;;;;5071768;28;20249;-65
2023/05/29 06:31:14;;;;;;;2.42;1.58;;;20.40;53.90;;;;;;5072527;28;20206;-65
2023/05/29 06:33:40;;;;;;;2.83;1.70;;;20.30;54.40;;;;;;5072776;28;20205;-65
2023/05/29 06:36:06;;;;;;;1.88;1.48;;;20.40;53.80;;;;;;5071907;28;20574;-66
2023/05/29 06:38:32;;;;;;;3.38;1.50;;;20.40;54.40;;;;;;5072977;28;20193;-65
2023/05/29 06:40:57;;;;;;;4.10;1.70;;;20.40;53.80;;;;;;5072558;28;20174;-64
2023/05/29 06:43:23;;;;;;;2.35;1.75;;;20.40;53.80;;;;;;5072039;28;20633;-65
2023/05/29 06:45:48;;;;;;;1.85;1.58;;;20.40;53.80;;;;;;5072938;28;20171;-64
2023/05/29 06:48:14;;;;;;;3.75;1.67;;;20.40;53.80;;;;;;5072646;28;20171;-64
2023/05/29 06:50:39;;;;;;;2.47;1.40;;;20.40;53.80;;;;;;5071953;28;20186;-64
2023/05/29 06:53:05;;;;;;;3.08;1.63;;;20.40;53.80;;;;;;5072885;28;20261;-64
2023/05/29 06:55:30;;;;;;;4.20;1.73;;;20.40;53.80;;;;;;5072007;28;20264;-64
2023/05/29 06:57:56;;;;;;;2.85;1.38;;;20.40;53.80;;;;;;5071816;28;20613;-65
2023/05/29 07:00:22;;;;;;;2.53;1.77;;;20.50;53.80;;;;;;5071983;28;20174;-66
2023/05/29 07:02:48;;;;;;;2.85;1.40;;;20.50;53.80;;;;;;5071620;28;20205;-65
2023/05/29 07:05:13;;;;;;;2.92;1.30;;;20.50;53.80;;;;;;5072281;28;20672;-66
2023/05/29 07:07:39;;;;;;;3.38;1.35;;;20.50;53.80;;;;;;5072633;28;20174;-64
2023/05/29 07:10:06;;;;;;;5.25;1.73;;;20.50;53.80;;;;;;5071980;28;20221;-64
2023/05/29 07:12:31;;;;;;;3.15;1.77;;;20.50;54.40;;;;;;5072378;28;20262;-64
2023/05/29 07:14:57;;;;;;;2.47;1.73;;;20.50;53.80;;;;;;5072256;28;20257;-64
2023/05/29 07:17:22;;;;;;;2.42;1.58;;;20.50;53.80;;;;;;5071369;28;20696;-64
2023/05/29 07:19:49;;;;;;;3.85;1.42;;;20.50;53.80;;;;;;5072218;28;20215;-64
2023/05/29 07:22:15;;;;;;;2.00;1.60;;;20.50;53.80;;;;;;5072475;28;20170;-65
2023/05/29 07:24:40;;;;;;;2.25;1.65;;;20.50;53.80;;;;;;5072041;28;20178;-64
2023/05/29 07:27:06;;;;;;;2.35;1.40;;;20.50;53.80;;;;;;5072040;28;20181;-64
2023/05/29 07:29:32;;;;;;;3.28;1.67;;;20.50;53.80;;;;;;5072289;28;20297;-65
2023/05/29 07:31:57;;;;;;;2.03;1.35;;;20.50;53.80;;;;;;5071779;28;20173;-65
2023/05/29 07:34:23;;;;;;;2.83;1.83;;;20.50;53.80;;;;;;5072617;28;20663;-66
2023/05/29 07:37:07;;;;;;;2.90;1.77;;;20.60;53.80;;;;;;5071387;28;20218;-65
2023/05/29 07:39:33;;;;;;;2.47;1.40;;;20.60;53.80;;;;;;5071637;28;20183;-65
2023/05/29 07:42:00;;;;;;;2.67;1.60;;;20.60;53.80;;;;;;5072209;28;20175;-65
2023/05/29 07:44:26;;;;;;;3.58;2.10;;;20.60;53.80;;;;;;5072014;28;20186;-64
2023/05/29 07:46:51;;;;;;;3.10;1.63;;;20.60;53.80;;;;;;5071498;28;20163;-64
2023/05/29 07:49:17;;;;;;;3.28;1.48;;;20.70;53.80;;;;;;5072122;28;20202;-64
2023/05/29 07:51:43;;;;;;;2.53;1.33;;;20.60;53.80;;;;;;5072365;28;20166;-63
2023/05/29 07:54:08;;;;;;;1.63;1.52;;;20.60;53.80;;;;;;5071277;28;20181;-63
2023/05/29 07:56:34;;;;;;;2.42;1.35;;;20.70;53.80;;;;;;5072095;28;20300;-64
2023/05/29 07:59:00;;;;;;;2.72;1.40;;;20.70;53.80;;;;;;5072435;28;20178;-66
2023/05/29 08:01:26;;;;;;;2.15;1.55;;;20.70;53.70;;;;;;5071347;28;20554;-66
2023/05/29 08:03:51;;;;;;;1.85;1.15;;;20.70;53.70;;;;;;5072372;28;20274;-65
2023/05/29 08:06:17;;;;;;;2.97;1.45;;;20.70;53.70;;;;;;5070713;28;20202;-65
2023/05/29 08:08:43;;;;;;;1.65;1.30;;;20.70;53.70;;;;;;5076028;28;20214;-64
2023/05/29 08:11:08;;;;;;;3.90;1.65;;;20.80;53.70;;;;;;5075790;28;20532;-64
2023/05/29 08:13:34;;;;;;;1.80;1.40;;;20.70;53.60;;;;;;5075175;28;20190;-64
2023/05/29 08:15:59;;;;;;;2.60;1.40;;;20.80;53.70;;;;;;5075679;28;20178;-64
2023/05/29 08:18:33;;;;;;;1.75;1.30;;;20.80;53.70;;;;;;5075608;28;20249;-64
2023/05/29 08:20:58;;;;;;;2.40;1.20;;;20.90;53.60;;;;;;5074048;28;20178;-65
2023/05/29 08:23:24;;;;;;;1.70;1.20;;;20.80;53.60;;;;;;5075336;28;20233;-63
2023/05/29 08:25:50;;;;;;;3.85;2.03;;;20.90;53.60;;;;;;5075642;28;20179;-64
2023/05/29 08:28:15;;;;;;;1.95;1.10;;;20.90;53.60;;;;;;5074577;28;20193;-64
2023/05/29 08:30:41;;;;;;;2.22;1.30;;;20.90;53.60;;;;;;5075833;28;20178;-64
2023/05/29 08:33:06;;;;;;;1.73;1.35;;;20.90;53.60;;;;;;5075385;28;20174;-65
2023/05/29 08:35:32;;;;;;;2.83;1.42;;;20.90;53.60;;;;;;5074932;28;20174;-65
2023/05/29 08:37:58;;;;;;;2.55;1.20;;;20.90;53.60;;;;;;5075336;28;20222;-65
2023/05/29 08:40:24;;;;;;;2.03;1.50;;;20.90;53.60;;;;;;5075258;28;20178;-65
2023/05/29 08:42:56;;;;;;;2.72;1.40;;;20.90;53.60;;;;;;5074616;28;20163;-64
2023/05/29 08:45:22;;;;;;;2.72;1.52;;;20.90;53.60;;;;;;5074910;28;20174;-64
2023/05/29 08:47:49;;;;;;;2.78;1.48;;;20.90;53.50;;;;;;5074033;28;20735;-64
2023/05/29 08:50:15;;;;;;;2.78;1.50;;;21.00;53.60;;;;;;5072257;28;20218;-64
2023/05/29 08:52:40;;;;;;;2.00;1.45;;;21.00;53.60;;;;;;5075366;28;20236;-64
2023/05/29 08:55:07;;;;;;;3.22;1.77;;;21.00;53.60;;;;;;5075058;28;20192;-66
2023/05/29 08:57:32;;;;;;;2.40;1.55;;;21.00;53.60;;;;;;5074212;28;20174;-67
2023/05/29 08:59:58;;;;;;;4.00;1.70;;;21.00;53.70;;;;;;5074917;28;20167;-64
2023/05/29 09:02:23;;;;;;;5.13;2.00;;;21.10;53.80;;;;;;5072053;28;20174;-64
2023/05/29 09:04:52;;;;;;;6.72;2.58;;;21.00;53.70;;;;;;5074789;28;20170;-63
2023/05/29 09:07:19;;;;;;;6.13;2.65;;;21.00;53.60;;;;;;5074517;28;20273;-62
2023/05/29 09:09:48;;;;;;;7.97;4.53;;;21.10;53.90;;;;;;5072890;28;20218;-65
2023/05/29 09:12:14;;;;;;;4.75;4.20;;;21.10;54.50;;;;;;5074380;28;20170;-66
2023/05/29 09:14:41;;;;;;;6.63;5.50;;;21.10;54.50;;;;;;5074688;28;20623;-64
2023/05/29 09:17:08;;;;;;;9.65;7.18;;;21.20;54.70;;;;;;5073834;28;20198;-64
2023/05/29 09:19:33;;;;;;;11.05;8.75;;;21.20;54.80;;;;;;5073786;28;20178;-64
2023/05/29 09:22:07;;;;;;;14.30;8.77;;;21.20;54.90;;;;;;5074662;28;20174;-64
2023/05/29 09:24:33;;;;;;;10.82;9.30;;;21.20;55.10;;;;;;5073800;28;20178;-64
2023/05/29 09:27:00;;;;;;;10.70;9.65;;;21.30;55.20;;;;;;5074372;28;20170;-63
2023/05/29 09:29:26;;;;;;;10.68;9.57;;;21.30;55.30;;;;;;5074322;28;20556;-65
2023/05/29 09:31:52;;;;;;;11.45;10.35;;;21.30;55.30;;;;;;5073624;28;20222;-64
2023/05/29 09:34:17;;;;;;;11.63;10.43;;;21.30;55.30;;;;;;5074036;28;20210;-66
2023/05/29 09:36:43;;;;;;;13.30;11.00;;;21.30;55.30;;;;;;5073881;28;20234;-65
2023/05/29 09:39:10;;;;;;;13.50;10.93;;;21.40;55.50;;;;;;5073164;28;20183;-65
2023/05/29 09:41:45;;;;;;;12.52;11.32;;;21.40;55.40;;;;;;5074130;28;20560;-63
2023/05/29 09:44:14;;;;;;;12.90;11.05;;;21.40;55.40;;;;;;5072930;28;20432;-66
2023/05/29 09:46:42;;;;;;;13.05;11.00;;;21.50;55.40;;;;;;5073553;28;20534;-64
2023/05/29 09:49:12;;;;;;;12.23;11.02;;;21.40;55.40;;;;;;5073464;28;20198;-64
2023/05/29 09:51:38;;;;;;;13.10;11.73;;;21.50;55.40;;;;;;5073284;28;20167;-63
2023/05/29 09:54:16;;;;;;;12.98;10.75;;;21.50;55.40;;;;;;5074035;28;20186;-65
2023/05/29 09:56:42;;;;;;;12.32;11.05;;;21.50;55.40;;;;;;5074031;28;20193;-64
2023/05/29 09:59:10;;;;;;;14.25;11.30;;;21.50;55.40;;;;;;5072187;28;20300;-65
2023/05/29 10:01:36;;;;;;;11.50;10.38;;;21.50;55.30;;;;;;5072670;28;20270;-64
2023/05/29 10:04:02;;;;;;;11.35;10.00;;;21.50;55.20;;;;;;5089443;28;20247;-64
2023/05/29 10:06:27;;;;;;;12.00;10.07;;;21.50;55.10;;;;;;5072629;28;20182;-65
2023/05/29 10:08:55;;;;;;;10.63;9.52;;;21.50;55.00;;;;;;5076378;28;20203;-64
2023/05/29 10:11:23;;;;;;;11.00;9.93;;;21.50;55.00;;;;;;5070126;28;20625;-64
2023/05/29 10:13:49;;;;;;;11.77;10.32;;;21.50;54.90;;;;;;5072888;28;20179;-64
2023/05/29 10:16:15;;;;;;;11.55;9.93;;;21.50;54.80;;;;;;5071994;28;20170;-64
2023/05/29 10:18:45;;;;;;;9.63;8.70;;;21.60;54.80;;;;;;5073054;28;20633;-64
2023/05/29 10:21:12;;;;;;;11.27;8.90;;;21.50;54.20;;;;;;5072592;28;20170;-64
2023/05/29 10:23:37;;;;;;;9.02;6.45;;;21.50;53.40;;;;;;5073320;28;20186;-65
2023/05/29 10:26:14;;;;;;;11.48;7.20;;;21.60;52.20;;;;;;5071518;28;20178;-64
2023/05/29 10:28:41;;;;;;;11.80;5.78;;;21.50;51.80;;;;;;5070767;28;20194;-64
2023/05/29 10:31:11;;;;;;;9.02;5.47;;;21.50;51.30;;;;;;5071052;28;20646;-65
2023/05/29 10:33:49;;;;;;;8.73;4.80;;;21.50;51.00;;;;;;5071774;28;20232;-66
2023/05/29 10:36:23;;;;;;;10.38;4.68;;;21.60;50.30;;;;;;5072712;28;20214;-66
2023/05/29 10:38:49;;;;;;;7.25;3.80;;;21.60;50.10;;;;;;5071945;28;20184;-65
2023/05/29 10:41:27;;;;;;;7.03;3.97;;;21.60;49.80;;;;;;5071614;28;20544;-65
2023/05/29 10:44:15;;;;;;;6.47;3.67;;;21.60;49.70;;;;;;5069467;28;20188;-66
2023/05/29 10:46:48;;;;;;;7.15;3.63;;;21.60;49.40;;;;;;5072897;28;20178;-65
2023/05/29 10:49:20;;;;;;;6.50;3.75;;;21.60;49.10;;;;;;5071750;28;20218;-64
2023/05/29 10:51:46;;;;;;;9.32;3.38;;;21.60;49.10;;;;;;5072997;28;20261;-65
2023/05/29 10:54:11;;;;;;;6.32;3.75;;;21.60;49.00;;;;;;5072482;28;20574;-65
2023/05/29 10:56:37;;;;;;;8.23;3.42;;;21.60;48.90;;;;;;5072429;28;20174;-65
2023/05/29 10:59:02;;;;;;;9.93;3.33;;;21.60;49.00;;;;;;5070737;28;20178;-66
2023/05/29 11:01:31;;;;;;;5.93;3.50;;;21.60;49.10;;;;;;5071979;28;20262;-66
2023/05/29 11:04:19;;;;;;;8.73;3.13;;;21.60;49.30;;;;;;5072129;28;20206;-66
2023/05/29 11:06:45;;;;;;;6.00;3.17;;;21.60;49.40;;;;;;5072537;28;20206;-64
2023/05/29 11:09:34;;;;;;;5.63;3.35;;;21.60;49.50;;;;;;5071154;28;20238;-65
2023/05/29 11:12:35;;;;;;;6.75;3.25;;;21.60;49.70;;;;;;5072520;28;20641;-64
2023/05/29 11:15:05;;;;;;;6.45;3.55;;;21.60;49.60;;;;;;5068791;28;20266;-64
2023/05/29 11:17:37;;;;;;;5.50;3.22;;;21.60;49.80;;;;;;5071852;28;20210;-64
2023/05/29 11:20:07;;;;;;;4.85;3.05;;;21.60;50.00;;;;;;5072632;28;20174;-65
2023/05/29 11:22:56;;;;;;;6.30;3.10;;;21.70;50.10;;;;;;5072787;28;20170;-64
2023/05/29 11:25:21;;;;;;;5.65;2.88;;;21.70;50.20;;;;;;5071415;28;20217;-64
2023/05/29 11:27:47;;;;;;;5.50;3.20;;;21.70;50.30;;;;;;5072510;28;20171;-64
2023/05/29 11:30:13;;;;;;;5.57;3.40;;;21.70;50.40;;;;;;5071481;28;20232;-65
2023/05/29 11:32:40;;;;;;;7.60;3.30;;;21.70;50.50;;;;;;5072735;28;20707;-66
2023/05/29 11:35:09;;;;;;;6.43;3.20;;;21.80;50.60;;;;;;5072615;28;20212;-66
2023/05/29 11:37:35;;;;;;;5.68;3.10;;;21.80;50.70;;;;;;5071319;28;20233;-66
2023/05/29 11:40:05;;;;;;;7.88;3.40;;;21.70;50.70;;;;;;5051329;28;20179;-66
2023/05/29 11:42:30;;;;;;;4.78;3.15;;;21.80;50.80;;;;;;5054100;28;20171;-65
2023/05/29 11:45:09;;;;;;;5.15;3.17;;;21.80;50.90;;;;;;5055964;28;20515;-65
2023/05/29 11:47:50;;;;;;;6.43;3.33;;;21.80;51.00;;;;;;5055598;28;20220;-64
2023/05/29 11:50:26;;;;;;;5.85;3.22;;;21.80;51.00;;;;;;5055958;28;20258;-65
2023/05/29 11:52:52;;;;;;;5.43;3.35;;;21.70;51.10;;;;;;5055609;28;20175;-64
2023/05/29 11:55:21;;;;;;;4.63;3.40;;;21.80;51.20;;;;;;5055845;28;20182;-64
2023/05/29 11:57:47;;;;;;;5.07;3.00;;;21.80;51.20;;;;;;5071837;28;20228;-65
2023/05/29 12:00:16;;;;;;;6.22;3.40;;;21.80;51.20;;;;;;5074908;28;20183;-66
2023/05/29 12:02:42;;;;;;;5.35;2.95;;;21.70;51.20;;;;;;5075831;28;20178;-65
2023/05/29 12:05:08;;;;;;;3.67;2.88;;;21.90;51.30;;;;;;5075410;28;20174;-65
2023/05/29 12:07:34;;;;;;;4.63;2.97;;;21.80;51.30;;;;;;5075181;28;20175;-64
2023/05/29 12:10:13;;;;;;;6.80;2.90;;;21.90;51.40;;;;;;5075975;28;20221;-64
2023/05/29 12:12:39;;;;;;;5.55;3.35;;;21.90;51.40;;;;;;5074930;28;20177;-63
2023/05/29 12:15:06;;;;;;;5.68;3.35;;;21.90;51.40;;;;;;5075717;28;20214;-64
2023/05/29 12:17:35;;;;;;;4.43;3.08;;;21.90;51.40;;;;;;5075463;28;20253;-64
2023/05/29 12:20:08;;;;;;;5.60;3.05;;;22.00;51.40;;;;;;5073845;28;20186;-64
2023/05/29 12:22:36;;;;;;;6.15;2.80;;;22.00;51.40;;;;;;5075668;28;20166;-64
2023/05/29 12:25:19;;;;;;;6.97;3.50;;;21.90;51.30;;;;;;5075681;28;20183;-64
2023/05/29 12:27:46;;;;;;;4.85;2.92;;;22.00;51.40;;;;;;5074482;28;20170;-65
2023/05/29 12:30:17;;;;;;;5.93;3.33;;;22.00;51.40;;;;;;5075633;28;20242;-65
2023/05/29 12:32:44;;;;;;;5.15;2.72;;;22.10;51.50;;;;;;5075118;28;20175;-65
2023/05/29 12:35:30;;;;;;;7.70;3.38;;;22.10;51.40;;;;;;5074417;28;20200;-67
2023/05/29 12:37:59;;;;;;;8.35;2.97;;;22.10;51.40;;;;;;5074462;28;20241;-65
2023/05/29 12:40:28;;;;;;;7.68;3.08;;;22.10;51.50;;;;;;5074446;28;20224;-66
2023/05/29 12:42:55;;;;;;;9.65;3.58;;;22.10;52.50;;;;;;5074574;28;20235;-66
2023/05/29 12:45:21;;;;;;;6.53;3.00;;;22.20;51.70;;;;;;5074393;28;20697;-67